Terminal Aerodrome Forecast
Issued by NWS Northern Indiana

Home | Current Version | Previous Version | Text Only | Print | Product List | Glossary On
Versions: 1 2 3 4 5 6 7 8 9 10 11 12 13 14 15
000
FTUS43 KIWX 051100
TAFFWA
TAF
KFWA 051136Z 0512/0612 36006KT P6SM BKN040
     FM051700 30010KT P6SM BKN040
     FM060100 27004KT P6SM SCT040
     FM061000 22005KT P6SM FEW250=

USA.gov is the U.S. government's official web portal to all federal, state and local government web resources and services.